• Join FlightAware (Why Join?)
  • Login
  • US Flag 
01:26AM EDT


 

Airport Tracker/Info


-or-


 

Live Flight TrackerFlight Track Log ✈ UPS214 ✈ 18-Sep-2013 ✈ EDDK / CGN - KSDF

Flight Track Log - Related Links

Times and Time Zones

All times are in EDT time to prevent confusion due to time zone crossing. See the UPS214 flight status page for this flight to view local times or setup timezone preferences in your user account.

Time Position Orientation Groundspeed Altitude Reporting Facility
EDT Latitude Longitude Course Direction KTS MPH feet Rate Location/Type
06:32PM 61.0780 -24.5880 292° West 478 550 34,100  Level FlightAware
06:33PM 61.1090 -24.7410 293° West 477 549 34,100  Level FlightAware
06:33PM 61.1360 -24.8760 293° West 475 547 34,100 -120 Level FlightAware
06:34PM 61.1660 -25.0260 293° West 472 543 34,000 -120 Descending FlightAware
06:34PM 61.1950 -25.1780 292° West 470 541 34,000  Level FlightAware
06:35PM 61.2250 -25.3270 293° West 469 540 34,000  Level FlightAware
06:36PM 61.2510 -25.4590 292° West 469 540 34,000  Level FlightAware
06:36PM 61.2790 -25.6100 291° West 468 539 34,000  Level FlightAware
06:37PM 61.3100 -25.7680 292° West 469 540 34,000  Level FlightAware
06:37PM 61.3350 -25.9010 291° West 470 541 34,000  Level FlightAware
06:38PM 61.3660 -26.0620 292° West 470 541 34,000 60 Level FlightAware
06:38PM 61.3910 -26.1970 291° West 470 541 34,100 60 Climbing FlightAware
06:39PM 61.4190 -26.3490 291° West 472 543 34,100  Level FlightAware
06:40PM 61.4430 -26.4770 291° West 470 541 34,100  Level FlightAware
06:40PM 61.4730 -26.6380 291° West 470 541 34,100 -120 Level FlightAware
06:41PM 61.5020 -26.7980 291° West 470 541 34,000 -120 Descending FlightAware
06:41PM 61.5270 -26.9370 291° West 468 539 34,000  Level FlightAware
06:42PM 61.5550 -27.0930 291° West 468 539 34,000  Level FlightAware
06:43PM 61.5790 -27.2280 291° West 468 539 34,000  Level FlightAware
06:43PM 61.6060 -27.3790 291° West 468 539 34,000  Level FlightAware
06:44PM 61.6280 -27.5070 290° West 468 539 34,000  Level FlightAware
06:44PM 61.6580 -27.6750 291° West 467 537 34,000  Level FlightAware
06:45PM 61.6840 -27.8290 290° West 468 539 34,000  Level FlightAware
06:45PM 61.7100 -27.9830 290° West 468 539 34,000 60 Level FlightAware
06:46PM 61.7370 -28.1400 290° West 468 539 34,100 60 Climbing FlightAware
06:47PM 61.7590 -28.2740 289° West 468 539 34,100  Level FlightAware
06:47PM 61.7860 -28.4310 290° West 468 539 34,100  Level FlightAware
06:48PM 61.8110 -28.5840 289° West 469 540 34,100  Level FlightAware
06:48PM 61.8370 -28.7410 289° West 468 539 34,100 -120 Level FlightAware
06:49PM 61.8610 -28.8940 288° West 467 537 34,000 -120 Descending FlightAware
06:50PM 61.8850 -29.0410 289° West 467 537 34,000  Level FlightAware
06:50PM 61.9090 -29.1890 289° West 467 537 34,000  Level FlightAware
06:51PM 61.9340 -29.3450 289° West 465 535 34,000  Level FlightAware
06:51PM 61.9560 -29.4830 289° West 464 534 34,000  Level FlightAware
06:52PM 61.9850 -29.6740 288° West 464 534 34,000  Level FlightAware
06:53PM 62.0050 -29.8070 288° West 464 534 34,000  Level FlightAware
06:53PM 62.0260 -29.9440 288° West 464 534 34,000  Level FlightAware
06:54PM 62.0480 -30.0880 288° West 464 534 34,000  Level FlightAware
06:55PM 62.0680 -30.2220 288° West 464 534 34,000  Level FlightAware
06:55PM 62.0890 -30.3550 289° West 464 534 34,000  Level FlightAware
06:56PM 62.1080 -30.4810 288° West 464 534 34,000  Level FlightAware
06:56PM 62.1280 -30.6150 288° West 464 534 34,000  Level FlightAware
06:57PM 62.1480 -30.7480 288° West 464 534 34,000  Level FlightAware
06:58PM 62.1690 -30.8820 289° West 464 534 34,000  Level FlightAware
06:58PM 62.1890 -31.0160 288° West 464 534 34,000  Level FlightAware
06:59PM 62.2090 -31.1500 288° West 464 534 34,000  Level FlightAware
06:59PM 62.2300 -31.2840 289° West 464 534 34,000  Level FlightAware
07:00PM 62.2510 -31.4260 288° West 464 534 34,000  Level FlightAware
07:01PM 62.2710 -31.5600 288° West 464 534 34,000  Level FlightAware
07:01PM 62.2930 -31.7020 288° West 464 534 34,000  Level FlightAware
07:04PM 62.3610 -32.2936 284° West  Level FlightAware Approximate
07:05PM 62.3899 -32.5516 284° West  Level FlightAware Approximate
07:06PM 62.4182 -32.8102 283° West  Level FlightAware Approximate
07:07PM 62.4460 -33.0692 283° West  Level FlightAware Approximate
07:08PM 62.4734 -33.3287 283° West  Level FlightAware Approximate
07:09PM 62.5003 -33.5886 283° West  Level FlightAware Approximate
07:10PM 62.5267 -33.8491 283° West  Level FlightAware Approximate
07:11PM 62.5526 -34.1100 282° West  Level FlightAware Approximate
07:12PM 62.5780 -34.3713 282° West  Level FlightAware Approximate
07:13PM 62.6029 -34.6331 282° West  Level FlightAware Approximate
07:14PM 62.6274 -34.8953 282° West  Level FlightAware Approximate
07:15PM 62.6513 -35.1580 281° West  Level FlightAware Approximate
07:16PM 62.6748 -35.4210 281° West  Level FlightAware Approximate
07:17PM 62.6978 -35.6845 281° West  Level FlightAware Approximate
07:18PM 62.7203 -35.9484 281° West  Level FlightAware Approximate
07:19PM 62.7422 -36.2127 280° West  Level FlightAware Approximate
07:20PM 62.7637 -36.4773 280° West  Level FlightAware Approximate
07:21PM 62.7847 -36.7424 280° West  Level FlightAware Approximate
07:22PM 62.8052 -37.0078 280° West  Level FlightAware Approximate
07:23PM 62.8252 -37.2736 279° West  Level FlightAware Approximate
07:23PM 62.9167 -38.1833 278° West 500 575 34,000  Level Gander Center
07:24PM 62.8447 -37.5398 279° West  Level FlightAware Approximate
07:24PM 62.9500 -38.4667 285° West 500 575 34,000  Level Gander Center
07:25PM 62.8636 -37.8063 279° West  Level FlightAware Approximate
07:25PM 62.9667 -38.8000 276° West 500 575 34,000  Level Gander Center
07:26PM 62.8821 -38.0731 279° West  Level FlightAware Approximate
07:26PM 63.0000 -39.0833 285° West 500 575 34,000  Level Gander Center
07:27PM 62.9001 -38.3403 279° West  Level FlightAware Approximate
07:28PM 62.9176 -38.6078 278° West  Level FlightAware Approximate
07:28PM 63.0006 -39.3789 270° West  Level FlightAware Approximate
07:29PM 62.9345 -38.8756 278° West  Level FlightAware Approximate
07:35PM 62.9138 -41.2742 262° West  Level FlightAware Approximate
07:35PM 62.9167 -41.6833 260° West 490 564 34,000  Level Gander Center
07:36PM 62.8941 -41.5427 261° West  Level FlightAware Approximate
07:36PM 62.9000 -41.9667 263° West 490 564 34,000  Level Gander Center
07:37PM 62.8739 -41.8108 261° West  Level FlightAware Approximate
07:37PM 62.8833 -42.2333 262° West 490 564 34,000  Level Gander Center
07:38PM 62.8532 -42.0786 260° West  Level FlightAware Approximate
07:38PM 62.8500 -42.5500 257° West 490 564 34,100  Level Gander Center
07:39PM 62.8319 -42.3460 260° West  Level FlightAware Approximate
07:39PM 62.8167 -42.8333 256° West 490 564 34,000  Level Gander Center
07:40PM 62.8102 -42.6130 260° West  Level FlightAware Approximate
07:40PM 62.8000 -43.1333 263° West 500 575 34,100  Level Gander Center
07:41PM 62.7667 -43.4167 256° West 500 575 34,100 -60 Level Gander Center
07:42PM 62.7667 -43.7167 270° West 500 575 34,000 -60 Descending Gander Center
07:43PM 62.7333 -44.0000 256° West 500 575 34,000  Level Gander Center
07:44PM 62.6833 -44.2833 249° West 500 575 34,000  Level Gander Center
07:45PM 62.6833 -44.5833 270° West 500 575 34,000  Level Gander Center
07:46PM 62.6333 -44.8667 249° West 500 575 34,000  Level Gander Center
07:47PM 62.6000 -45.1833 257° West 500 575 34,100  Climbing Gander Center
07:48PM 62.5833 -45.4833 263° West 510 587 34,100 -60 Level Gander Center
07:49PM 62.5500 -45.7500 255° West 500 575 34,000 -60 Descending Gander Center
07:50PM 62.5167 -46.0667 257° West 500 575 34,000  Level Gander Center
07:51PM 62.5000 -46.3333 262° West 500 575 34,000  Level Gander Center
07:52PM 62.4500 -46.6167 249° West 500 575 34,000  Level Gander Center
07:53PM 62.4333 -46.9167 263° West 500 575 34,000  Level Gander Center
07:54PM 62.4000 -47.1833 255° West 500 575 34,000  Level Gander Center
07:55PM 62.3500 -47.4833 250° West 500 575 34,000  Level Gander Center
07:56PM 62.3333 -47.7500 262° West 500 575 34,100  Climbing Gander Center
07:57PM 62.3000 -48.0667 257° West 490 564 34,000 -60 Descending Gander Center
07:58PM 62.2500 -48.3333 248° West 490 564 34,000  Level Gander Center
07:59PM 62.2333 -48.6333 263° West 490 564 34,000  Level Gander Center
08:01PM 62.1756 -48.9810 251° West  Level FlightAware Approximate
08:03PM 62.0667 -49.7333 250° West 490 564 34,000  Level Gander Center
08:04PM 62.0333 -50.0000 255° West 490 564 34,000  Level Gander Center
08:05PM 62.0000 -50.3000 257° West 490 564 34,000  Level Gander Center
08:06PM 61.9500 -50.5667 248° West 490 564 34,000  Level Gander Center
08:07PM 61.9000 -50.8333 248° West 490 564 34,000  Level Gander Center
08:08PM 61.8777 -50.7257 251° West  Level FlightAware Approximate
08:08PM 61.8667 -51.1167 256° West 490 564 34,000  Level Gander Center
08:09PM 61.8348 -50.9733 250° West  Level FlightAware Approximate
08:09PM 61.8167 -51.3833 248° West 490 564 34,000  Level Gander Center
08:10PM 61.7667 -51.6500 248° West 500 575 34,000  Level Gander Center
08:11PM 61.7167 -51.9500 251° West 500 575 34,100  Climbing Gander Center
08:12PM 61.6667 -52.2000 247° West 500 575 34,100 -60 Level Gander Center
08:13PM 61.6167 -52.4667 249° West 500 575 34,000 -60 Descending Gander Center
08:14PM 61.5833 -52.7500 256° West 500 575 34,000  Level Gander Center
08:15PM 61.5333 -53.0167 249° West 490 564 34,000  Level Gander Center
08:16PM 61.4833 -53.2667 247° West 490 564 34,000  Level Gander Center
08:17PM 61.4333 -53.5333 249° West 490 564 34,000  Level Gander Center
08:18PM 61.4000 -53.8167 256° West 490 564 34,100  Climbing Gander Center
08:19PM 61.3500 -54.0667 247° West 490 564 34,000 -60 Descending Gander Center
08:20PM 61.3000 -54.3333 249° West 490 564 34,000  Level Gander Center
08:21PM 61.2333 -54.5833 241° Southwest 490 564 34,000  Level Gander Center
08:22PM 61.1833 -54.8333 248° West 490 564 34,000  Level Gander Center
08:23PM 61.1500 -55.1167 256° West 490 564 34,000  Level Gander Center
08:24PM 61.0833 -55.3667 241° Southwest 490 564 34,000  Level Gander Center
08:25PM 61.0333 -55.6167 248° West 490 564 34,100  Climbing Gander Center
08:26PM 60.9833 -55.8667 248° West 490 564 34,100 -60 Level Gander Center
08:27PM 60.8833 -56.0833 227° Southwest 490 564 34,000 -60 Descending Gander Center
08:28PM 60.8167 -56.3000 238° Southwest 490 564 34,000  Level Gander Center
08:29PM 60.7167 -56.5167 227° Southwest 480 552 34,000  Level Gander Center
08:30PM 60.6500 -56.7333 238° Southwest 480 552 34,000  Level Gander Center
08:31PM 60.5500 -56.9500 227° Southwest 490 564 34,100  Climbing Gander Center
08:32PM 60.4667 -57.1667 232° Southwest 490 564 34,100  Level Gander Center
08:33PM 60.3833 -57.3833 232° Southwest 490 564 34,100 -60 Level Gander Center
08:34PM 60.2833 -57.6000 227° Southwest 480 552 34,000 -60 Descending Gander Center
08:35PM 60.2000 -57.7667 225° Southwest 480 552 34,000  Level Gander Center
08:36PM 60.1333 -57.9833 238° Southwest 480 552 34,000  Level Gander Center
08:37PM 60.0333 -58.1833 225° Southwest 480 552 34,000  Level Gander Center
08:38PM 59.9667 -58.2667 212° Southwest 480 552 34,000 60 Level Montreal Center
08:39PM 59.9000 -58.4333 231° Southwest 480 552 34,100  Climbing Montreal Center
08:40PM 59.8000 -58.6667 230° Southwest 480 552 34,100 -60 Level Montreal Center
08:41PM 59.7167 -58.8333 225° Southwest 480 552 34,000 -60 Descending Montreal Center
08:42PM 59.6333 -59.0500 233° Southwest 470 541 34,000  Level Montreal Center
08:43PM 59.5500 -59.2333 228° Southwest 470 541 34,000  Level Montreal Center
08:44PM 59.4500 -59.4500 228° Southwest 470 541 34,000  Level Montreal Center
08:45PM 59.3833 -59.6833 241° Southwest 470 541 34,100  Climbing Gander Center
08:46PM 59.2500 -59.9500 226° Southwest 470 541 34,000  Descending Gander Center
08:47PM 59.2000 -60.0000 207° Southwest 470 541 34,100  Climbing Montreal Center
08:48PM 59.1167 -60.2500 237° Southwest 480 552 34,000  Descending Gander Center
08:49PM 59.0333 -60.4167 226° Southwest 470 541 34,100  Climbing Gander Center
08:50PM 58.9333 -60.6000 223° Southwest 470 541 34,000 -60 Descending Gander Center
08:51PM 58.8500 -60.7667 226° Southwest 470 541 34,000  Level Montreal Center
08:52PM 58.7667 -60.9333 226° Southwest 470 541 34,000  Level Montreal Center
08:53PM 58.6833 -61.1500 234° Southwest 460 529 34,000  Level Gander Center
08:54PM 58.6000 -61.3500 231° Southwest 470 541 34,100  Climbing Gander Center
08:55PM 58.5167 -61.5000 223° Southwest 470 541 34,000 -60 Descending Gander Center
08:56PM 58.4333 -61.7000 232° Southwest 460 529 34,000  Level Gander Center
08:57PM 58.3167 -61.8333 211° Southwest 440 506 34,000  Level Montreal Center
08:58PM 58.2333 -62.0333 232° Southwest 470 541 34,000  Level Montreal Center
08:59PM 58.1333 -62.2000 221° Southwest 470 541 34,100  Climbing Montreal Center
09:00PM 58.0500 -62.3667 227° Southwest 470 541 34,100 -60 Level Montreal Center
09:01PM 57.9833 -62.5667 238° Southwest 460 529 34,000 -60 Descending Gander Center
09:02PM 57.8833 -62.7500 224° Southwest 460 529 34,000  Level Gander Center
09:03PM 57.7833 -62.8833 215° Southwest 460 529 34,100  Climbing Montreal Center
09:04PM 57.7000 -63.0667 230° Southwest 460 529 34,000 -60 Descending Montreal Center
09:05PM 57.5833 -63.2333 217° Southwest 450 518 34,000  Level Montreal Center
09:06PM 57.5167 -63.4167 236° Southwest 460 529 34,100  Climbing Gander Center
09:07PM 57.4333 -63.6000 230° Southwest 460 529 34,100 -60 Level Gander Center
09:08PM 57.3333 -63.7333 216° Southwest 450 518 34,000 -60 Descending Montreal Center
09:09PM 57.2500 -63.8833 224° Southwest 440 506 34,000  Level Montreal Center
09:10PM 57.1667 -64.0333 224° Southwest 440 506 34,000 240 Level Montreal Center
09:11PM 57.0667 -64.1833 219° Southwest 450 518 34,500 660 Climbing Montreal Center
09:12PM 56.9667 -64.3833 228° Southwest 450 518 35,400 780 Climbing Montreal Center
09:13PM 56.9000 -64.5500 234° Southwest 460 529 36,000 300 Climbing Gander Center
09:14PM 56.8000 -64.7333 225° Southwest 450 518 36,000  Level Gander Center
09:15PM 56.7000 -64.9000 222° Southwest 460 529 36,000  Level Gander Center
09:16PM 56.6167 -65.0500 225° Southwest 450 518 36,000  Level Gander Center
09:17PM 56.5333 -65.2167 228° Southwest 450 518 36,000  Level Gander Center
09:18PM 56.4333 -65.3667 220° Southwest 450 518 36,000  Level Gander Center
09:19PM 56.3333 -65.4833 213° Southwest 450 518 36,000  Level Montreal Center
09:20PM 56.2500 -65.6333 225° Southwest 440 506 36,000  Level Montreal Center
09:21PM 56.1500 -65.7833 220° Southwest 450 518 36,000  Level Montreal Center
09:22PM 56.0667 -65.9333 225° Southwest 440 506 36,000  Level Montreal Center
09:23PM 55.9833 -66.1000 228° Southwest 430 495 36,000  Level Montreal Center
09:24PM 55.8833 -66.2500 220° Southwest 460 529 36,000  Level Gander Center
09:25PM 55.8000 -66.4167 228° Southwest 440 506 36,000  Level Gander Center
09:26PM 55.6833 -66.5333 209° Southwest 440 506 36,000  Level Montreal Center
09:27PM 55.6000 -66.6833 226° Southwest 440 506 36,000  Level Montreal Center
09:28PM 55.5167 -66.8500 229° Southwest 450 518 36,000  Level Montreal Center
09:29PM 55.4167 -66.9833 217° Southwest 440 506 36,000  Level Montreal Center
09:30PM 55.3333 -67.1333 226° Southwest 450 518 36,100  Climbing Montreal Center
09:31PM 55.2333 -67.3000 224° Southwest 440 506 36,000 -60 Descending Montreal Center
09:32PM 55.1333 -67.4333 217° Southwest 450 518 36,000  Level Montreal Center
09:33PM 55.0333 -67.5833 221° Southwest 450 518 36,000  Level Montreal Center
09:34PM 54.9500 -67.7167 223° Southwest 450 518 36,000  Level Montreal Center
09:35PM 54.8500 -67.8833 224° Southwest 450 518 36,100  Climbing Montreal Center
09:36PM 54.7667 -68.0167 223° Southwest 460 529 36,000  Descending Montreal Center
09:37PM 54.6667 -68.1500 218° Southwest 450 518 36,100  Climbing Montreal Center
09:38PM 54.5833 -68.2833 223° Southwest 460 529 36,100  Level Montreal Center
09:39PM 54.4667 -68.4500 220° Southwest 450 518 36,100 -60 Level Montreal Center
09:40PM 54.3833 -68.6000 226° Southwest 450 518 36,000 -60 Descending Gander Center
09:41PM 54.2833 -68.7333 218° Southwest 450 518 36,000  Level Gander Center
09:42PM 54.2000 -68.8833 227° Southwest 450 518 36,000  Level Gander Center
09:43PM 54.0833 -69.0167 214° Southwest 460 529 36,100  Climbing Montreal Center
09:44PM 53.9833 -69.1333 214° Southwest 460 529 36,100  Level Montreal Center
09:45PM 53.9000 -69.3000 230° Southwest 460 529 36,100 -60 Level Montreal Center
09:46PM 53.8000 -69.4333 218° Southwest 450 518 36,000 -60 Descending Montreal Center
09:47PM 53.7000 -69.5500 215° Southwest 450 518 36,000  Level Montreal Center
09:48PM 53.6000 -69.6833 218° Southwest 450 518 36,000  Level Montreal Center
09:49PM 53.5000 -69.8500 225° Southwest 450 518 36,000  Level Montreal Center
09:50PM 53.4000 -69.9667 215° Southwest 450 518 36,100  Climbing Montreal Center
09:51PM 53.3167 -70.1000 224° Southwest 450 518 36,100  Level Montreal Center
09:52PM 53.2167 -70.2167 215° Southwest 460 529 36,100 -60 Level Montreal Center
09:53PM 53.1000 -70.3833 221° Southwest 460 529 36,000 -60 Descending Montreal Center
09:54PM 53.0167 -70.5000 220° Southwest 460 529 36,000  Level Montreal Center
09:55PM 52.9167 -70.6333 219° Southwest 450 518 36,000  Level Montreal Center
09:56PM 52.8167 -70.7833 222° Southwest 450 518 36,000  Level Montreal Center
09:57PM 52.7333 -70.9000 220° Southwest 450 518 36,000  Level Montreal Center
09:58PM 52.6333 -71.0167 215° Southwest 450 518 36,000  Level Montreal Center
09:59PM 52.5167 -71.1833 221° Southwest 450 518 36,000  Level Montreal Center
10:00PM 52.4167 -71.3000 215° Southwest 450 518 36,100  Climbing Montreal Center
10:01PM 52.3333 -71.4167 221° Southwest 450 518 36,100 -60 Level Montreal Center
10:02PM 52.2333 -71.5333 216° Southwest 450 518 36,000 -60 Descending Montreal Center
10:03PM 52.1333 -71.6833 223° Southwest 450 518 36,000  Level Montreal Center
10:04PM 52.0333 -71.8000 216° Southwest 450 518 36,000  Level Montreal Center
10:05PM 51.9333 -71.9167 216° Southwest 440 506 36,000  Level Montreal Center
10:06PM 51.8500 -72.0667 228° Southwest 450 518 36,000  Level Montreal Center
10:07PM 51.7500 -72.1833 216° Southwest 450 518 36,000  Level Montreal Center
10:08PM 51.6333 -72.3000 212° Southwest 450 518 36,000  Level Montreal Center
10:09PM 51.5333 -72.4167 216° Southwest 450 518 36,000  Level Montreal Center
10:10PM 51.4333 -72.5667 223° Southwest 460 529 36,000  Level Montreal Center
10:11PM 51.3333 -72.6833 216° Southwest 460 529 36,000  Level Montreal Center
10:12PM 51.2333 -72.8167 220° Southwest 460 529 36,000  Level Montreal Center
10:13PM 51.1333 -72.9333 216° Southwest 470 541 36,000  Level Montreal Center
10:14PM 51.0333 -73.0500 216° Southwest 470 541 36,000  Level Montreal Center
10:15PM 50.9167 -73.1833 216° Southwest 470 541 36,000  Level Montreal Center
10:16PM 50.8167 -73.3000 216° Southwest 470 541 36,000  Level Montreal Center
10:17PM 50.7000 -73.4333 216° Southwest 480 552 36,000  Level Montreal Center
10:18PM 50.5833 -73.5500 212° Southwest 480 552 36,000  Level Montreal Center
10:19PM 50.4833 -73.6833 220° Southwest 480 552 36,000  Level Montreal Center
10:20PM 50.3667 -73.8000 213° Southwest 480 552 36,000  Level Montreal Center
10:21PM 50.2833 -73.9333 226° Southwest 480 552 36,000  Level Montreal Center
10:22PM 50.1667 -74.0667 216° Southwest 480 552 36,000  Level Montreal Center
10:23PM 50.0500 -74.1833 213° Southwest 480 552 36,000  Level Montreal Center
10:24PM 49.9167 -74.3500 219° Southwest 480 552 36,000  Level Montreal Center
10:25PM 49.8167 -74.4500 213° Southwest 480 552 36,000  Level Montreal Center
10:26PM 49.7000 -74.5833 216° Southwest 490 564 36,000  Level Montreal Center
10:27PM 49.5833 -74.7000 213° Southwest 490 564 36,000  Level Montreal Center
10:28PM 49.4667 -74.8000 209° Southwest 490 564 36,000  Level Montreal Center
10:29PM 49.3500 -74.9000 209° Southwest 500 575 36,000  Level Montreal Center
10:30PM 49.2167 -75.0333 213° Southwest 500 575 36,000  Level Montreal Center
10:31PM 49.1167 -75.1500 217° Southwest 500 575 36,000  Level Montreal Center
10:32PM 48.9833 -75.2667 210° Southwest 500 575 36,000  Level Montreal Center
10:33PM 48.8667 -75.3833 213° Southwest 500 575 36,000  Level Montreal Center
10:34PM 48.7500 -75.4833 209° Southwest 500 575 36,000  Level Montreal Center
10:35PM 48.6333 -75.5833 210° Southwest 500 575 36,000  Level Montreal Center
10:36PM 48.5000 -75.7167 214° Southwest 500 575 36,000  Level Montreal Center
10:37PM 48.4000 -75.8167 214° Southwest 500 575 36,000  Level Montreal Center
10:38PM 48.2833 -75.9167 210° Southwest 500 575 36,000  Level Montreal Center
10:39PM 48.1500 -76.0500 214° Southwest 500 575 36,000  Level Montreal Center
10:40PM 48.0500 -76.1500 214° Southwest 500 575 36,000  Level Montreal Center
10:41PM 47.9000 -76.2500 204° Southwest 500 575 36,000  Level Montreal Center
10:46PM 47.2920 -76.7990 204° Southwest 503 579 36,100  Climbing FlightAware
10:47PM 47.2280 -76.8540 210° Southwest 501 577 36,100 -120 Level FlightAware
10:47PM 47.1520 -76.9200 211° Southwest 497 572 36,000 -120 Descending FlightAware
10:48PM 47.0820 -76.9800 210° Southwest 495 570 36,000  Level FlightAware
10:48PM 47.0180 -77.0340 210° Southwest 492 566 36,000  Level FlightAware
10:49PM 46.9480 -77.0940 210° Southwest 488 562 36,000  Level FlightAware
10:50PM 46.8770 -77.1540 210° Southwest 486 559 36,000  Level FlightAware
10:50PM 46.8080 -77.2130 210° Southwest 485 558 36,000  Level FlightAware
10:51PM 46.7110 -77.2950 210° Southwest 487 560 36,000  Level FlightAware
10:52PM 46.6500 -77.3470 210° Southwest 487 560 36,000  Level FlightAware
10:52PM 46.5830 -77.4030 210° Southwest 487 560 36,000  Level FlightAware
10:53PM 46.5160 -77.4600 210° Southwest 487 560 36,000 60 Level FlightAware
10:53PM 46.4520 -77.5130 210° Southwest 488 562 36,100 60 Climbing FlightAware
10:54PM 46.3750 -77.5770 210° Southwest 488 562 36,100  Level FlightAware
10:55PM 46.3060 -77.6340 210° Southwest 487 560 36,100 -120 Level FlightAware
10:55PM 46.2350 -77.6930 210° Southwest 485 558 36,000 -120 Descending FlightAware
10:56PM 46.1640 -77.7520 210° Southwest 485 558 36,000  Level FlightAware
10:56PM 46.1020 -77.8030 210° Southwest 484 557 36,000  Level FlightAware
10:57PM 46.0320 -77.8600 209° Southwest 483 556 36,000  Level FlightAware
10:57PM 45.9630 -77.9170 210° Southwest 483 556 36,000  Level FlightAware
10:58PM 45.8910 -77.9750 209° Southwest 485 558 36,000  Level FlightAware
10:59PM 45.8310 -78.0240 210° Southwest 486 559 36,000  Level FlightAware
10:59PM 45.7590 -78.0830 210° Southwest 485 558 36,000  Level FlightAware
11:00PM 45.6890 -78.1400 210° Southwest 487 560 36,000  Level FlightAware
11:00PM 45.6260 -78.1900 209° Southwest 488 562 36,000  Level FlightAware
11:01PM 45.5550 -78.2480 210° Southwest 488 562 36,000  Level FlightAware
11:02PM 45.4880 -78.3020 209° Southwest 489 563 36,000  Level FlightAware
11:02PM 45.4150 -78.3600 209° Southwest 490 564 36,000 60 Level FlightAware
11:03PM 45.3500 -78.4110 209° Southwest 491 565 36,100 60 Climbing FlightAware
11:03PM 45.2790 -78.4680 209° Southwest 490 564 36,100  Level FlightAware
11:04PM 45.2080 -78.5240 209° Southwest 489 563 36,100 -120 Level FlightAware
11:04PM 45.1370 -78.5810 210° Southwest 487 560 36,000 -120 Descending FlightAware
11:05PM 45.0750 -78.6300 209° Southwest 486 559 36,000  Level FlightAware
11:06PM 44.9930 -78.6940 209° Southwest 484 557 36,000  Level FlightAware
11:06PM 44.9230 -78.7490 209° Southwest 483 556 36,000  Level FlightAware
11:07PM 44.8670 -78.7930 209° Southwest 484 557 36,000  Level FlightAware
11:07PM 44.7950 -78.8490 209° Southwest 483 556 36,000  Level FlightAware
11:08PM 44.7270 -78.9020 209° Southwest 483 556 36,000  Level FlightAware
11:09PM 44.6590 -78.9550 209° Southwest 483 556 36,000  Level FlightAware
11:09PM 44.5810 -79.0160 209° Southwest 483 556 36,000  Level FlightAware
11:10PM 44.5130 -79.0690 209° Southwest 484 557 36,000  Level FlightAware
11:10PM 44.4530 -79.1140 208° Southwest 485 558 36,000  Level FlightAware
11:11PM 44.3940 -79.1590 209° Southwest 485 558 36,000  Level FlightAware
11:12PM 44.3190 -79.2170 209° Southwest 485 558 36,000  Level FlightAware
11:12PM 44.2610 -79.2690 213° Southwest 484 557 36,000  Level FlightAware
11:13PM 44.1760 -79.3440 212° Southwest 485 558 36,000  Level FlightAware
11:13PM 44.1100 -79.4020 212° Southwest 487 560 36,000  Level FlightAware
11:14PM 44.0410 -79.4620 212° Southwest 487 560 36,000  Level FlightAware
11:15PM 43.9730 -79.5210 212° Southwest 489 563 36,000  Level FlightAware
11:15PM 43.9000 -79.5840 212° Southwest 489 563 36,000  Level FlightAware
11:16PM 43.8200 -79.6550 213° Southwest 489 563 36,000 60 Level FlightAware
11:16PM 43.7590 -79.7220 218° Southwest 487 560 36,100 60 Climbing FlightAware
11:17PM 43.7000 -79.7890 219° Southwest 488 562 36,100 -120 Level FlightAware
11:18PM 43.6400 -79.8570 219° Southwest 489 563 36,000 -120 Descending FlightAware
11:18PM 43.5720 -79.9340 219° Southwest 489 563 36,000  Level FlightAware
11:19PM 43.5140 -79.9990 219° Southwest 489 563 36,000  Level FlightAware
11:19PM 43.4530 -80.0670 219° Southwest 489 563 36,000  Level FlightAware
11:20PM 43.3910 -80.1360 219° Southwest 489 563 36,000  Level FlightAware
11:20PM 43.3340 -80.2000 219° Southwest 489 563 36,000  Level FlightAware
11:21PM 43.2700 -80.2710 219° Southwest 489 563 36,000  Level FlightAware
11:22PM 43.2070 -80.3410 219° Southwest 488 562 36,000  Level FlightAware
11:22PM 43.1450 -80.4100 219° Southwest 487 560 36,000  Level FlightAware
11:23PM 43.0800 -80.4800 218° Southwest 487 560 36,000  Level FlightAware
11:23PM 43.0180 -80.5490 219° Southwest 487 560 36,000  Level FlightAware
11:24PM 42.9580 -80.6140 218° Southwest 487 560 36,000  Level FlightAware
11:25PM 42.9020 -80.6760 219° Southwest 486 559 36,000  Level FlightAware
11:25PM 42.8380 -80.7460 219° Southwest 485 558 36,000  Level FlightAware
11:26PM 42.7810 -80.8080 219° Southwest 485 558 36,000  Level FlightAware
11:26PM 42.7150 -80.8790 218° Southwest 485 558 36,000  Level FlightAware
11:27PM 42.6480 -80.9430 215° Southwest 485 558 36,000  Level FlightAware
11:28PM 42.5880 -81.0030 216° Southwest 487 560 36,000  Level FlightAware
11:28PM 42.5200 -81.0680 215° Southwest 488 562 36,000  Level FlightAware
11:29PM 42.4610 -81.1250 215° Southwest 490 564 36,000 60 Level FlightAware
11:29PM 42.3930 -81.1910 216° Southwest 490 564 36,100 60 Climbing FlightAware
11:30PM 42.3250 -81.2560 215° Southwest 491 565 36,100  Level FlightAware
11:30PM 42.2580 -81.3200 215° Southwest 492 566 36,100 -120 Level FlightAware
11:31PM 42.1980 -81.3770 215° Southwest 494 568 36,000 -120 Descending FlightAware
11:32PM 42.1310 -81.4410 215° Southwest 496 571 36,000  Level FlightAware
11:32PM 42.0710 -81.4970 215° Southwest 498 573 36,000 60 Level FlightAware
11:33PM 41.9970 -81.5670 215° Southwest 497 572 36,100 60 Climbing FlightAware
11:33PM 41.9290 -81.6310 215° Southwest 497 572 36,100 -120 Level FlightAware
11:34PM 41.8540 -81.7010 215° Southwest 496 571 36,000 -120 Descending FlightAware
11:35PM 41.7950 -81.7570 215° Southwest 494 568 36,000  Level FlightAware
11:35PM 41.7340 -81.8230 219° Southwest 496 571 36,000  Level FlightAware
11:36PM 41.6650 -81.9010 220° Southwest 492 566 36,000  Level FlightAware
11:36PM 41.6030 -81.9710 220° Southwest 491 565 36,000  Level FlightAware
11:37PM 41.5390 -82.0410 219° Southwest 497 572 36,000  Level FlightAware
11:38PM 41.4870 -82.0990 220° Southwest 497 572 36,000  Level FlightAware
11:38PM 41.4210 -82.1720 220° Southwest 496 571 36,000  Level FlightAware
11:39PM 41.3670 -82.2310 219° Southwest 497 572 36,000  Level FlightAware
11:39PM 41.2960 -82.3090 220° Southwest 500 575 36,000  Level FlightAware
11:40PM 41.2310 -82.3810 220° Southwest 499 574 36,000  Level FlightAware
11:41PM 41.1890 -82.4260 219° Southwest 500 575 36,000  Level FlightAware
11:41PM 41.1140 -82.5080 219° Southwest 497 572 36,000  Level FlightAware
11:42PM 41.0510 -82.5760 219° Southwest 497 572 36,000  Level FlightAware
11:42PM 41.0110 -82.6210 220° Southwest 497 572 36,000  Level FlightAware
11:43PM 40.9060 -82.7340 219° Southwest 498 573 36,000  Level FlightAware
11:44PM 40.8430 -82.8020 219° Southwest 497 572 36,000  Level FlightAware
11:44PM 40.7850 -82.8650 219° Southwest 497 572 36,000  Level FlightAware
11:45PM 40.7210 -82.9340 219° Southwest 497 572 36,000  Level FlightAware
11:45PM 40.6670 -82.9910 219° Southwest 497 572 36,000  Level FlightAware
11:46PM 40.5990 -83.0640 219° Southwest 496 571 36,000  Level FlightAware
11:46PM 40.5330 -83.1340 219° Southwest 498 573 36,000  Level FlightAware
11:47PM 40.4710 -83.2000 219° Southwest 498 573 36,000  Level FlightAware
11:48PM 40.4140 -83.2620 220° Southwest 499 574 36,000 60 Level FlightAware
11:48PM 40.3490 -83.3310 219° Southwest 497 572 36,100 60 Climbing FlightAware
11:49PM 40.2850 -83.3970 218° Southwest 494 568 36,100  Level FlightAware
11:49PM 40.2180 -83.4680 219° Southwest 492 566 36,100 -300 Level FlightAware
11:50PM 40.1580 -83.5310 219° Southwest 489 563 35,800 -720 Descending FlightAware
11:51PM 40.0990 -83.5920 218° Southwest 490 564 35,300 -960 Descending FlightAware
11:51PM 40.0330 -83.6610 219° Southwest 493 567 34,700 -1,080 Descending FlightAware
11:52PM 39.9760 -83.7210 219° Southwest 499 574 34,100 -1,020 Descending FlightAware
11:52PM 39.9180 -83.7810 218° Southwest 502 578 33,600 -1,020 Descending FlightAware
11:53PM 39.8480 -83.8550 219° Southwest 482 555 32,900 -1,020 Descending FlightAware
11:53PM 39.7900 -83.9150 218° Southwest 477 549 32,400 -1,020 Descending FlightAware
11:54PM 39.7340 -83.9720 218° Southwest 479 551 31,800 -1,020 Descending FlightAware
11:55PM 39.6620 -84.0460 218° Southwest 484 557 31,200 -720 Descending FlightAware
11:55PM 39.5870 -84.1240 219° Southwest 488 562 30,800 -300 Descending FlightAware
11:56PM 39.5320 -84.1790 218° Southwest 488 562 30,800 -1,680 Level FlightAware
11:56PM 39.4950 -84.1530 152° Southeast 487 560 29,800 -2,460 Descending FlightAware
11:57PM 39.4070 -84.1460 176° South 472 543 29,100 -780 Descending FlightAware
11:58PM 39.3060 -84.1350 175° South 472 543 28,700 -300 Descending FlightAware
11:58PM 39.2400 -84.1280 175° South 472 543 28,700  Level FlightAware
11:59PM 39.1730 -84.1200 175° South 472 543 28,700 1,080 Level FlightAware
11:59PM 39.5260 -84.1510 356° North 494 568 30,000 -3,840 Climbing FlightAware
12:00AM 39.0719 -84.3186 356° North 432 497 23,400 -5,220 Descending Indianapolis Center
12:01AM 39.0075 -84.4472 237° Southwest 430 495 20,700 -2,520 Descending Indianapolis Center
12:02AM 38.9517 -84.5711 240° Southwest 408 470 18,400 -2,220 Descending Indianapolis Center
12:03AM 38.8869 -84.6992 237° Southwest 390 449 16,200 -1,800 Descending Indianapolis Center
12:04AM 38.8303 -84.8136 238° Southwest 382 440 14,800 -1,620 Descending Indianapolis Center
12:05AM 38.7750 -84.9250 238° Southwest 373 429 13,000 -1,380 Descending Indianapolis Center
12:06AM 38.6994 -85.0092 221° Southwest 363 418 12,000 -540 Descending Indianapolis Center
12:07AM 38.6069 -85.0983 217° Southwest 368 423 12,000 -300 Level Indianapolis Center
12:08AM 38.5303 -85.1728 217° Southwest 354 407 11,500 -720 Descending Indianapolis Center
12:09AM 38.4681 -85.2311 216° Southwest 324 373 10,600 -1,200 Descending Indianapolis Center
12:10AM 38.4033 -85.2928 217° Southwest 295 339 9,100 -1,440 Descending Indianapolis Center
12:11AM 38.3386 -85.3539 217° Southwest 290 334 7,700 -1,320 Descending Indianapolis Center
12:12AM 38.2778 -85.4131 217° Southwest 279 321 6,500 -1,080 Descending Indianapolis Center
12:13AM 38.2178 -85.4683 216° Southwest 269 310 5,600 -900 Descending Indianapolis Center
12:14AM 38.1683 -85.5172 218° Southwest 247 284 4,700 -840 Descending Indianapolis Center
12:15AM 38.1169 -85.5447 203° Southwest 222 255 4,000 -660 Descending Indianapolis Center
12:16AM 38.0494 -85.5506 184° South 226 260 3,400 -300 Descending Indianapolis Center
12:19AM 38.0142 -85.6603 248° West 197 227 3,000 -120 Descending Indianapolis Center
12:20AM 38.0661 -85.7008 328° Northwest 194 223 3,100 60 Climbing Indianapolis Center
12:22AM 38.1667 -85.7333 339° North  Level FlightAware Approximate